createdAt,value
2023-02-13T00:01:25.963Z,31.37
2023-02-13T00:03:55.812Z,35.07
2023-02-13T00:06:24.142Z,31.67
2023-02-13T00:08:52.424Z,31.37
2023-02-13T00:11:21.323Z,35.37
2023-02-13T00:13:51.823Z,31.67
2023-02-13T00:16:20.719Z,31.60
2023-02-13T00:18:48.991Z,28.20
2023-02-13T00:21:18.736Z,38.73
2023-02-13T00:23:47.104Z,36.17
2023-02-13T00:26:17.687Z,38.20
2023-02-13T00:28:46.238Z,35.93
2023-02-13T00:31:17.149Z,33.37
2023-02-13T00:33:45.528Z,33.07
2023-02-13T00:36:14.969Z,30.97
2023-02-13T00:38:45.590Z,35.10
2023-02-13T00:41:14.456Z,28.03
2023-02-13T00:43:42.905Z,37.33
2023-02-13T00:46:11.793Z,30.03
2023-02-13T00:48:40.103Z,30.73
2023-02-13T00:51:09.485Z,28.53
2023-02-13T00:53:38.157Z,30.27
2023-02-13T00:56:08.704Z,31.47
2023-02-13T00:58:36.902Z,34.03
2023-02-13T01:01:05.432Z,31.47
2023-02-13T01:03:33.734Z,30.20
2023-02-13T01:06:04.436Z,33.20
2023-02-13T01:08:32.772Z,34.57
2023-02-13T01:11:01.675Z,28.83
2023-02-13T01:13:31.203Z,24.30
2023-02-13T01:15:59.399Z,28.73
2023-02-13T01:18:27.766Z,32.90
2023-02-13T01:21:01.584Z,34.93
2023-02-13T01:23:32.637Z,23.20
2023-02-13T01:26:01.056Z,27.97
2023-02-13T01:28:30.789Z,32.17
2023-02-13T01:31:00.434Z,28.93
2023-02-13T01:33:30.510Z,27.67
2023-02-13T01:36:00.491Z,29.00
2023-02-13T01:38:28.659Z,35.80
2023-02-13T01:40:57.394Z,24.37
2023-02-13T01:43:26.967Z,22.83
2023-02-13T01:45:58.675Z,30.80
2023-02-13T01:48:30.895Z,26.30
2023-02-13T01:51:04.174Z,33.70
2023-02-13T01:53:37.431Z,22.23
2023-02-13T01:56:11.826Z,27.87
2023-02-13T01:58:44.011Z,28.87
2023-02-13T02:01:13.613Z,23.03
2023-02-13T02:03:46.358Z,32.00
2023-02-13T02:06:19.896Z,30.87
2023-02-13T02:08:50.744Z,29.80
2023-02-13T02:11:32.224Z,21.50
2023-02-13T02:14:01.117Z,30.70
2023-02-13T02:16:32.122Z,32.37
2023-02-13T02:19:00.823Z,23.73
2023-02-13T02:21:53.550Z,34.03
2023-02-13T02:24:49.342Z,34.33
2023-02-13T02:27:51.812Z,27.57
2023-02-13T02:30:59.006Z,28.93
2023-02-13T02:33:41.402Z,32.17
2023-02-13T02:36:23.813Z,30.60
2023-02-13T02:39:13.560Z,35.40
2023-02-13T02:41:55.987Z,30.60
2023-02-13T02:44:38.617Z,34.57
2023-02-13T02:47:36.026Z,34.77
2023-02-13T02:50:20.479Z,29.13
2023-02-13T02:52:59.511Z,24.80
2023-02-13T02:55:37.386Z,29.73
2023-02-13T02:58:30.205Z,31.00
2023-02-13T03:01:19.125Z,26.03
2023-02-13T03:04:06.171Z,27.57
2023-02-13T03:06:40.513Z,32.93
2023-02-13T03:09:33.998Z,30.43
2023-02-13T03:12:21.097Z,31.70
2023-02-13T03:14:50.054Z,31.13
2023-02-13T03:17:37.963Z,29.00
2023-02-13T03:20:34.215Z,32.73
2023-02-13T03:23:15.251Z,26.20
2023-02-13T03:26:16.654Z,30.93
2023-02-13T03:29:11.519Z,31.17
2023-02-13T03:31:49.982Z,37.30
2023-02-13T03:34:22.535Z,28.63
2023-02-13T03:37:14.336Z,31.07
2023-02-13T03:39:52.947Z,28.70
2023-02-13T03:42:32.768Z,33.73
2023-02-13T03:45:24.503Z,32.33
2023-02-13T03:47:56.599Z,23.43
2023-02-13T03:50:25.778Z,33.63
2023-02-13T03:52:58.109Z,41.00
2023-02-13T03:55:51.323Z,29.07
2023-02-13T03:58:41.765Z,26.10
2023-02-13T04:01:15.749Z,34.37
2023-02-13T04:03:51.172Z,34.27
2023-02-13T04:06:23.478Z,36.33
2023-02-13T04:08:51.566Z,33.93
2023-02-13T04:11:30.066Z,35.53
2023-02-13T04:14:00.534Z,28.40
2023-02-13T04:16:34.901Z,34.63
2023-02-13T04:19:04.250Z,29.80
2023-02-13T04:21:35.307Z,33.07
2023-02-13T04:24:03.421Z,26.60
2023-02-13T04:26:36.903Z,34.63
2023-02-13T04:29:05.412Z,27.63
2023-02-13T04:31:33.976Z,29.53
2023-02-13T04:34:02.535Z,25.97
2023-02-13T04:36:30.822Z,26.77
2023-02-13T04:38:59.041Z,31.63
2023-02-13T04:41:27.506Z,34.10
2023-02-13T04:43:56.961Z,30.90
2023-02-13T04:46:25.321Z,33.50
2023-02-13T04:48:53.486Z,33.30
2023-02-13T04:51:21.649Z,30.67
2023-02-13T04:53:50.128Z,31.50
2023-02-13T04:56:19.981Z,27.77
2023-02-13T04:58:48.635Z,30.67
2023-02-13T05:01:19.689Z,30.77
2023-02-13T05:03:47.807Z,38.00
2023-02-13T05:06:16.055Z,31.10
2023-02-13T05:08:44.456Z,37.10
2023-02-13T05:11:12.593Z,36.33
2023-02-13T05:13:40.690Z,34.60
2023-02-13T05:16:09.344Z,33.67
2023-02-13T05:18:38.973Z,31.47
2023-02-13T05:21:24.890Z,29.57
2023-02-13T05:23:53.135Z,31.00
2023-02-13T05:26:21.169Z,34.27
2023-02-13T05:29:06.328Z,28.90
2023-02-13T05:31:34.659Z,32.20
2023-02-13T05:34:04.299Z,33.60
2023-02-13T05:36:32.564Z,34.57
2023-02-13T05:39:01.479Z,32.27
2023-02-13T05:41:29.730Z,34.43
2023-02-13T05:43:58.152Z,31.27
2023-02-13T05:46:26.934Z,29.90
2023-02-13T05:48:56.971Z,35.03
2023-02-13T05:51:26.593Z,31.50
2023-02-13T05:53:55.159Z,31.67
2023-02-13T05:56:23.397Z,31.27
2023-02-13T05:58:53.970Z,32.87
2023-02-13T06:01:22.519Z,33.10
2023-02-13T06:03:52.537Z,30.83
2023-02-13T06:06:21.554Z,28.23
2023-02-13T06:08:52.414Z,33.13
2023-02-13T06:11:21.343Z,28.03
2023-02-13T06:13:49.709Z,31.63
2023-02-13T06:16:18.056Z,27.10
2023-02-13T06:18:48.768Z,26.53
2023-02-13T06:21:17.761Z,33.97
2023-02-13T06:23:46.115Z,28.97
2023-02-13T06:26:15.763Z,29.43
2023-02-13T06:28:44.121Z,28.60
2023-02-13T06:31:12.526Z,35.00
2023-02-13T06:33:40.731Z,34.13
2023-02-13T06:36:09.332Z,34.17
2023-02-13T06:38:37.497Z,28.37
2023-02-13T06:41:07.048Z,35.77
2023-02-13T06:43:38.569Z,36.07
2023-02-13T06:46:08.932Z,25.50
2023-02-13T06:48:37.682Z,28.13
2023-02-13T06:51:06.474Z,30.83
2023-02-13T06:53:34.608Z,31.07
2023-02-13T06:56:05.781Z,30.17
2023-02-13T06:58:34.507Z,31.33
2023-02-13T07:01:04.507Z,32.07
2023-02-13T07:03:32.946Z,27.83
2023-02-13T07:06:01.112Z,27.07
2023-02-13T07:08:29.478Z,31.60
2023-02-13T07:10:57.796Z,30.73
2023-02-13T07:13:26.725Z,30.70
2023-02-13T07:15:54.812Z,26.93
2023-02-13T07:18:24.383Z,29.03
2023-02-13T07:20:52.506Z,29.03
2023-02-13T07:23:20.557Z,28.80
2023-02-13T07:25:48.965Z,30.37
2023-02-13T07:28:17.542Z,29.03
2023-02-13T07:30:45.858Z,29.67
2023-02-13T07:33:13.970Z,27.70
2023-02-13T07:35:48.079Z,23.97
2023-02-13T07:38:16.214Z,28.57
2023-02-13T07:40:44.522Z,28.43
2023-02-13T07:46:07.719Z,21.80
2023-02-13T07:48:35.983Z,23.70
2023-02-13T07:51:06.851Z,28.63
2023-02-13T07:53:35.145Z,28.00
2023-02-13T07:56:06.976Z,25.57
2023-02-13T07:58:35.139Z,25.97
2023-02-13T08:01:08.102Z,25.50
2023-02-13T08:03:36.260Z,28.47
2023-02-13T08:06:06.570Z,24.33
2023-02-13T08:08:35.180Z,27.73
2023-02-13T08:11:24.733Z,26.33
2023-02-13T08:13:53.031Z,21.37
2023-02-13T08:16:21.358Z,21.07
2023-02-13T08:18:49.524Z,24.77
2023-02-13T08:21:19.442Z,27.73
2023-02-13T08:23:48.901Z,18.63
2023-02-13T08:26:17.072Z,20.03
2023-02-13T08:28:45.550Z,21.77
2023-02-13T08:31:14.276Z,24.93
2023-02-13T08:33:42.534Z,20.53
2023-02-13T08:36:11.536Z,20.73
2023-02-13T08:38:41.679Z,20.07
2023-02-13T08:41:10.619Z,31.27
2023-02-13T08:43:38.753Z,25.90
2023-02-13T08:46:07.276Z,22.37
2023-02-13T08:48:38.213Z,27.60
2023-02-13T08:51:08.717Z,23.73
2023-02-13T08:53:38.011Z,23.47
2023-02-13T08:56:10.534Z,23.20
2023-02-13T08:58:38.773Z,23.90
2023-02-13T09:01:08.236Z,26.23
2023-02-13T09:03:37.224Z,25.97
2023-02-13T09:06:05.843Z,27.03
2023-02-13T09:08:35.722Z,22.20
2023-02-13T09:11:06.616Z,29.30
2023-02-13T09:13:37.280Z,25.07
2023-02-13T09:16:07.388Z,30.70
2023-02-13T09:18:36.302Z,19.43
2023-02-13T09:21:06.463Z,21.37
2023-02-13T09:23:35.533Z,24.43
2023-02-13T09:26:05.495Z,22.23
2023-02-13T09:28:36.346Z,24.87
2023-02-13T09:31:07.104Z,19.07
2023-02-13T09:33:35.490Z,23.53
2023-02-13T09:36:06.870Z,29.03
2023-02-13T09:38:35.720Z,28.23
2023-02-13T09:41:06.990Z,25.53
2023-02-13T09:43:42.440Z,25.77
2023-02-13T09:46:15.077Z,23.57
2023-02-13T09:48:47.250Z,24.47
2023-02-13T09:51:18.658Z,20.27
2023-02-13T09:53:54.936Z,28.67
2023-02-13T09:56:37.030Z,20.90
2023-02-13T09:59:25.824Z,20.53
2023-02-13T10:01:57.504Z,20.57
2023-02-13T10:04:33.457Z,27.87
2023-02-13T10:07:17.709Z,23.63
2023-02-13T10:09:55.131Z,23.90
2023-02-13T10:12:44.617Z,20.00
2023-02-13T10:15:27.592Z,22.97
2023-02-13T10:18:01.130Z,22.37
2023-02-13T10:20:37.518Z,24.37
2023-02-13T10:23:26.561Z,26.93
2023-02-13T10:25:59.991Z,21.60
2023-02-13T10:28:36.242Z,18.77
2023-02-13T10:31:08.656Z,18.67
2023-02-13T10:33:45.106Z,23.33
2023-02-13T10:36:20.171Z,21.73
2023-02-13T10:38:58.202Z,20.10
2023-02-13T10:41:41.179Z,23.20
2023-02-13T10:44:34.240Z,17.83
2023-02-13T10:47:15.057Z,20.60
2023-02-13T10:50:04.543Z,21.37
2023-02-13T10:52:46.177Z,20.20
2023-02-13T10:55:30.672Z,22.40
2023-02-13T10:58:10.487Z,20.27
2023-02-13T11:00:45.811Z,22.57
2023-02-13T11:03:21.181Z,23.70
2023-02-13T11:05:50.761Z,17.13
2023-02-13T11:08:23.563Z,21.20
2023-02-13T11:10:52.265Z,25.37
2023-02-13T11:13:22.243Z,18.33
2023-02-13T11:16:07.422Z,18.93
2023-02-13T11:18:41.458Z,13.07
2023-02-13T11:21:11.842Z,23.57
2023-02-13T11:23:45.305Z,16.67
2023-02-13T11:26:31.882Z,20.43
2023-02-13T11:29:05.879Z,20.97
2023-02-13T11:31:36.570Z,27.93
2023-02-13T11:37:18.891Z,18.97
2023-02-13T11:39:51.136Z,17.97
2023-02-13T11:42:26.164Z,16.87
2023-02-13T11:44:57.009Z,22.90
2023-02-13T11:47:39.961Z,22.17
2023-02-13T11:50:22.432Z,20.70
2023-02-13T11:53:01.569Z,17.60
2023-02-13T11:55:33.579Z,23.87
2023-02-13T11:58:03.962Z,19.33
2023-02-13T12:00:37.842Z,25.97
2023-02-13T12:03:28.752Z,16.27
2023-02-13T12:06:02.817Z,24.27
2023-02-13T12:08:34.884Z,21.50
2023-02-13T12:11:05.256Z,17.23
2023-02-13T12:13:37.111Z,15.67
2023-02-13T12:16:12.359Z,41.63
2023-02-13T12:18:45.417Z,24.23
2023-02-13T12:21:33.914Z,21.73
2023-02-13T12:24:11.389Z,23.60
2023-02-13T12:26:44.318Z,23.37
2023-02-13T12:29:29.722Z,20.50
2023-02-13T12:32:12.705Z,22.43
2023-02-13T12:35:00.771Z,19.20
2023-02-13T12:37:49.043Z,24.43
2023-02-13T12:41:02.593Z,17.50
2023-02-13T12:43:49.446Z,24.90
2023-02-13T12:46:24.117Z,16.47
2023-02-13T12:49:01.880Z,20.73
2023-02-13T12:51:44.741Z,20.83
2023-02-13T12:54:43.171Z,20.53
2023-02-13T12:57:32.145Z,18.80
2023-02-13T13:00:19.708Z,17.83
2023-02-13T13:03:07.736Z,18.60
2023-02-13T13:06:08.832Z,22.70
2023-02-13T13:09:12.051Z,12.63
2023-02-13T13:12:03.202Z,18.97
2023-02-13T13:14:43.046Z,23.40
2023-02-13T13:17:26.348Z,17.90
2023-02-13T13:20:05.184Z,20.40
2023-02-13T13:22:39.603Z,27.27
2023-02-13T13:25:17.555Z,19.43
2023-02-13T13:27:48.076Z,20.00
2023-02-13T13:30:21.961Z,19.00
2023-02-13T13:32:57.056Z,21.00
2023-02-13T13:35:25.790Z,21.07
2023-02-13T13:38:03.569Z,21.27
2023-02-13T13:40:41.709Z,17.67
2023-02-13T13:43:22.059Z,22.87
2023-02-13T13:46:07.055Z,26.67
2023-02-13T13:49:11.107Z,22.53
2023-02-13T13:51:39.731Z,20.10
2023-02-13T13:54:24.027Z,18.53
2023-02-13T13:57:12.921Z,21.37
2023-02-13T14:00:16.929Z,26.97
2023-02-13T14:02:51.665Z,23.40
2023-02-13T14:05:31.692Z,20.03
2023-02-13T14:08:02.170Z,18.20
2023-02-13T14:11:06.864Z,18.43
2023-02-13T14:13:38.883Z,21.57
2023-02-13T14:16:11.862Z,29.13
2023-02-13T14:18:48.911Z,18.20
2023-02-13T14:21:25.358Z,18.40
2023-02-13T14:23:54.660Z,38.57
2023-02-13T14:26:39.238Z,18.23
2023-02-13T14:29:33.682Z,25.50
2023-02-13T14:32:19.978Z,15.43
2023-02-13T14:35:01.773Z,18.20
2023-02-13T14:37:36.821Z,17.40
2023-02-13T14:40:39.516Z,18.23
2023-02-13T14:43:31.439Z,18.13
2023-02-13T14:46:08.333Z,21.20
2023-02-13T14:48:44.539Z,25.07
2023-02-13T14:51:28.950Z,19.37
2023-02-13T14:54:03.204Z,19.47
2023-02-13T14:56:39.725Z,17.57
2023-02-13T14:59:15.970Z,18.57
2023-02-13T15:01:52.916Z,15.47
2023-02-13T15:04:29.365Z,18.97
2023-02-13T15:07:01.713Z,22.73
2023-02-13T15:09:37.663Z,17.33
2023-02-13T15:12:06.108Z,21.43
2023-02-13T15:14:36.419Z,20.43
2023-02-13T15:17:10.239Z,21.20
2023-02-13T15:19:43.410Z,19.87
2023-02-13T15:22:27.242Z,20.77
2023-02-13T15:24:56.921Z,19.27
2023-02-13T15:27:28.471Z,18.57
2023-02-13T15:30:02.208Z,24.57
2023-02-13T15:32:37.119Z,27.73
2023-02-13T15:35:22.654Z,18.20
2023-02-13T15:37:56.275Z,25.07
2023-02-13T15:40:27.222Z,22.60
2023-02-13T15:42:58.169Z,24.73
2023-02-13T15:45:28.621Z,28.03
2023-02-13T15:47:59.253Z,19.87
2023-02-13T15:50:50.013Z,30.87
2023-02-13T15:53:20.572Z,29.77
2023-02-13T15:55:59.457Z,33.57
2023-02-13T15:58:32.096Z,24.00
2023-02-13T16:01:07.571Z,22.50
2023-02-13T16:03:38.965Z,22.30
2023-02-13T16:06:08.578Z,27.63
2023-02-13T16:08:44.033Z,24.90
2023-02-13T16:11:27.812Z,29.10
2023-02-13T16:14:10.607Z,27.10
2023-02-13T16:16:47.795Z,27.30
2023-02-13T16:19:38.604Z,28.23
2023-02-13T16:22:20.819Z,26.47
2023-02-13T16:24:54.156Z,25.80
2023-02-13T16:27:25.651Z,25.97
2023-02-13T16:29:58.375Z,23.90
2023-02-13T16:32:30.720Z,28.53
2023-02-13T16:35:17.276Z,28.07
2023-02-13T16:37:53.664Z,27.70
2023-02-13T16:40:39.935Z,26.73
2023-02-13T16:43:36.482Z,26.83
2023-02-13T16:46:19.860Z,24.67
2023-02-13T16:48:59.420Z,29.80
2023-02-13T16:51:35.178Z,24.43
2023-02-13T16:54:07.598Z,29.23
2023-02-13T16:56:42.182Z,29.93
2023-02-13T16:59:25.500Z,29.43
2023-02-13T17:02:15.667Z,24.93
2023-02-13T17:04:45.774Z,24.50
2023-02-13T17:07:16.352Z,28.13
2023-02-13T17:09:44.704Z,27.80
2023-02-13T17:12:20.066Z,29.03
2023-02-13T17:14:48.599Z,22.67
2023-02-13T17:17:21.938Z,31.13
2023-02-13T17:19:50.908Z,29.73
2023-02-13T17:22:36.209Z,33.03
2023-02-13T17:25:07.486Z,30.00
2023-02-13T17:27:37.074Z,31.67
2023-02-13T17:30:06.043Z,29.13
2023-02-13T17:32:34.262Z,29.67
2023-02-13T17:35:04.442Z,38.33
2023-02-13T17:37:35.434Z,31.73
2023-02-13T17:40:04.306Z,26.30
2023-02-13T17:42:32.624Z,30.60
2023-02-13T17:45:02.346Z,28.37
2023-02-13T17:47:31.339Z,33.43
2023-02-13T17:50:09.406Z,32.13
2023-02-13T17:52:39.276Z,29.83
2023-02-13T17:55:09.115Z,28.40
2023-02-13T17:57:37.288Z,32.53
2023-02-13T18:00:09.073Z,29.17
2023-02-13T18:02:38.161Z,26.57
2023-02-13T18:05:07.077Z,28.23
2023-02-13T18:07:35.927Z,33.90
2023-02-13T18:10:04.673Z,38.07
2023-02-13T18:12:32.809Z,37.47
2023-02-13T18:15:01.154Z,37.43
2023-02-13T18:17:30.591Z,32.87
2023-02-13T18:19:59.106Z,36.67
2023-02-13T18:22:27.372Z,32.03
2023-02-13T18:24:55.821Z,28.23
2023-02-13T18:27:26.363Z,40.63
2023-02-13T18:29:55.377Z,35.13
2023-02-13T18:32:25.131Z,34.47
2023-02-13T18:34:57.843Z,31.93
2023-02-13T18:37:28.534Z,33.13
2023-02-13T18:39:59.719Z,37.50
2023-02-13T18:42:33.717Z,39.37
2023-02-13T18:45:06.124Z,31.53
2023-02-13T18:47:34.677Z,31.97
2023-02-13T18:50:04.943Z,38.27
2023-02-13T18:52:33.224Z,32.70
2023-02-13T18:55:10.196Z,28.23
2023-02-13T18:57:43.590Z,32.27
2023-02-13T19:00:14.440Z,34.50
2023-02-13T19:02:42.877Z,31.93
2023-02-13T19:05:12.609Z,29.00
2023-02-13T19:07:41.011Z,32.20
2023-02-13T19:10:10.109Z,38.67
2023-02-13T19:12:39.395Z,33.30
2023-02-13T19:15:16.776Z,32.27
2023-02-13T19:17:45.514Z,37.53
2023-02-13T19:20:16.835Z,34.00
2023-02-13T19:22:45.925Z,31.53
2023-02-13T19:25:14.853Z,31.53
2023-02-13T19:27:43.035Z,35.03
2023-02-13T19:30:12.927Z,32.73
2023-02-13T19:32:41.861Z,29.77
2023-02-13T19:35:11.667Z,32.70
2023-02-13T19:37:44.681Z,29.10
2023-02-13T19:40:13.950Z,35.60
2023-02-13T19:42:43.190Z,39.00
2023-02-13T19:45:12.372Z,33.30
2023-02-13T19:47:41.403Z,34.20
2023-02-13T19:50:13.960Z,32.77
2023-02-13T19:52:46.008Z,32.33
2023-02-13T19:55:14.486Z,34.43
2023-02-13T19:57:43.193Z,37.30
2023-02-13T20:00:12.581Z,29.27
2023-02-13T20:02:44.436Z,29.33
2023-02-13T20:05:13.240Z,27.97
2023-02-13T20:07:42.020Z,37.90
2023-02-13T20:10:22.604Z,39.37
2023-02-13T20:12:54.718Z,33.30
2023-02-13T20:15:24.189Z,35.43
2023-02-13T20:17:52.895Z,32.67
2023-02-13T20:20:21.470Z,29.83
2023-02-13T20:22:51.774Z,39.90
2023-02-13T20:25:23.052Z,32.73
2023-02-13T20:27:51.556Z,31.53
2023-02-13T20:30:21.164Z,29.37
2023-02-13T20:32:49.326Z,40.90
2023-02-13T20:35:17.884Z,31.00
2023-02-13T20:37:46.647Z,31.67
2023-02-13T20:40:15.628Z,36.40
2023-02-13T20:42:45.558Z,30.70
2023-02-13T20:45:16.620Z,26.63
2023-02-13T20:47:46.568Z,32.33
2023-02-13T20:50:15.682Z,27.73
2023-02-13T20:52:44.326Z,34.87
2023-02-13T20:55:12.863Z,32.03
2023-02-13T20:57:41.013Z,31.73
2023-02-13T21:00:13.877Z,32.77
2023-02-13T21:02:42.564Z,30.90
2023-02-13T21:05:10.698Z,30.87
2023-02-13T21:07:39.131Z,28.57
2023-02-13T21:10:08.111Z,29.03
2023-02-13T21:12:36.316Z,35.33
2023-02-13T21:15:04.779Z,25.33
2023-02-13T21:17:39.285Z,32.17
2023-02-13T21:20:08.983Z,28.43
2023-02-13T21:22:37.450Z,26.27
2023-02-13T21:25:06.254Z,31.43
2023-02-13T21:27:35.535Z,26.27
2023-02-13T21:30:04.036Z,35.10
2023-02-13T21:32:33.851Z,30.17
2023-02-13T21:35:02.383Z,28.07
2023-02-13T21:37:31.017Z,25.97
2023-02-13T21:39:59.220Z,26.43
2023-02-13T21:42:30.618Z,28.73
2023-02-13T21:44:59.816Z,33.67
2023-02-13T21:47:28.339Z,32.20
2023-02-13T21:49:58.244Z,33.77
2023-02-13T21:52:26.548Z,31.23
2023-02-13T21:54:54.981Z,27.80
2023-02-13T21:57:23.199Z,30.80
2023-02-13T21:59:51.406Z,22.67
2023-02-13T22:02:21.499Z,29.93
2023-02-13T22:04:50.318Z,27.20
2023-02-13T22:07:20.782Z,23.00
2023-02-13T22:09:52.116Z,27.83
2023-02-13T22:12:23.985Z,27.47
2023-02-13T22:14:52.384Z,25.33
2023-02-13T22:17:22.257Z,29.17
2023-02-13T22:19:51.066Z,26.63
2023-02-13T22:22:20.595Z,23.57
2023-02-13T22:24:48.992Z,31.53
2023-02-13T22:27:17.586Z,27.77
2023-02-13T22:29:45.865Z,28.10
2023-02-13T22:32:14.107Z,27.33
2023-02-13T22:34:42.602Z,27.47
2023-02-13T22:37:12.663Z,25.20
2023-02-13T22:39:44.467Z,30.47
2023-02-13T22:42:12.719Z,23.90
2023-02-13T22:44:41.086Z,24.57
2023-02-13T22:47:09.198Z,30.13
2023-02-13T22:49:38.311Z,30.57
2023-02-13T22:52:07.531Z,30.70
2023-02-13T22:54:35.675Z,29.57
2023-02-13T22:57:06.099Z,26.77
2023-02-13T22:59:38.683Z,27.20
2023-02-13T23:02:08.119Z,26.03
2023-02-13T23:04:36.450Z,26.23
2023-02-13T23:07:06.624Z,25.30
2023-02-13T23:09:35.047Z,30.30
2023-02-13T23:12:22.136Z,30.70
2023-02-13T23:14:50.439Z,23.50
2023-02-13T23:17:35.918Z,26.50
2023-02-13T23:20:04.577Z,26.37
2023-02-13T23:22:32.963Z,26.90
2023-02-13T23:25:02.507Z,26.93
2023-02-13T23:27:34.866Z,26.97
2023-02-13T23:30:04.736Z,31.60
2023-02-13T23:32:33.198Z,24.57
2023-02-13T23:37:53.649Z,34.03
2023-02-13T23:40:21.974Z,30.03
2023-02-13T23:42:51.665Z,26.33
2023-02-13T23:45:20.754Z,29.47
2023-02-13T23:47:48.931Z,33.90
2023-02-13T23:50:17.515Z,32.50
2023-02-13T23:52:45.928Z,29.17
2023-02-13T23:55:14.331Z,31.03
2023-02-13T23:57:42.466Z,31.07
